Flight Track Log - Related Links

Times and Time Zones

All times are in EDT time to prevent confusion due to time zone crossing. See the SWA322 flight status page for this flight to view local times or setup timezone preferences in your user account.

Time Position Orientation Groundspeed Altitude Reporting Facility
EDT Latitude Longitude Course Direction KTS MPH feet Rate Location/Type
Sat 04:53:55 PM 40.8167 -73.9000 323° Northwest 172 198 1,900  Level New York TRACON
Sat 04:54:55 PM 40.8500 -73.9333 323° Northwest 202 232 5,300 3,350 Climbing New York TRACON
Sat 04:55:55 PM 40.8667 -74.0167 285° West 232 267 8,600 3,000 Climbing New York TRACON
Sat 04:56:55 PM 40.8500 -74.1167 258° West 262 302 11,300 2,700 Climbing New York TRACON
Sat 04:57:55 PM 40.8333 -74.2167 258° West 323 372 14,000 2,850 Climbing New York TRACON
Sat 04:58:55 PM 40.8167 -74.3333 259° West 337 388 17,000 1,563 Climbing New York TRACON
Sat 04:59:54 PM 40.7956 -74.4558 257° West 325 374 17,100 149 Climbing New York Center
Sat 05:00:56 PM 40.7747 -74.5711 257° West 325 374 17,300 1,317 Climbing New York Center
Sat 05:01:57 PM 40.7383 -74.6739 245° Southwest 331 381 19,800 2,634 Climbing New York Center
Sat 05:02:59 PM 40.6958 -74.7875 244° Southwest 343 395 22,700 2,903 Climbing New York Center
Sat 05:04:01 PM 40.6450 -74.9242 244° Southwest 350 403 25,800 2,371 Climbing New York Center
Sat 05:05:03 PM 40.6017 -75.0392 244° Southwest 351 404 27,600 1,597 Climbing New York Center
Sat 05:06:05 PM 40.5561 -75.1589 243° Southwest 368 423 29,100 1,742 Climbing New York Center
Sat 05:07:07 PM 40.5103 -75.2800 244° Southwest 372 428 31,200 2,049 Climbing New York Center
Sat 05:08:08 PM 40.4578 -75.4172 243° Southwest 371 427 33,300 1,805 Climbing New York Center
Sat 05:09:10 PM 40.4114 -75.5381 243° Southwest 372 428 34,900 1,403 Climbing New York Center
Sat 05:10:12 PM 40.3619 -75.6681 244° Southwest 371 427 36,200 1,161 Climbing New York Center
Sat 05:11:14 PM 40.3144 -75.7883 243° Southwest 371 427 37,300 1,016 Climbing New York Center
Sat 05:12:16 PM 40.2706 -75.9033 243° Southwest 373 429 38,300 878 Climbing New York Center
Sat 05:13:17 PM 40.2242 -76.0244 243° Southwest 373 429 39,100 732 Climbing New York Center
Sat 05:14:19 PM 40.1700 -76.1622 243° Southwest 376 433 39,800 435 Climbing New York Center
Sat 05:15:21 PM 40.1256 -76.2786 243° Southwest 377 434 40,000 97 Climbing New York Center
Sat 05:16:23 PM 40.0708 -76.3986 239° Southwest 382 440 40,000  Level New York Center
Sat 05:17:25 PM 40.0161 -76.5169 239° Southwest 382 440 40,000  Level New York Center
Sat 05:18:26 PM 39.9494 -76.6603 239° Southwest 383 441 40,000  Level New York Center
Sat 05:19:28 PM 39.8933 -76.7806 239° Southwest 386 444 40,000  Level New York Center
Sat 05:20:17 PM 39.8486 -76.8753 238° Southwest 391 450 40,000  Level Washington Center
Sat 05:21:17 PM 39.7908 -76.9956 238° Southwest 391 450 40,000  Level Washington Center
Sat 05:22:18 PM 39.7375 -77.1133 240° Southwest 391 450 40,000  Level Washington Center
Sat 05:23:15 PM 39.6797 -77.2336 238° Southwest 391 450 40,000  Level Washington Center
Sat 05:24:16 PM 39.6236 -77.3536 239° Southwest 391 450 40,000  Level Washington Center
Sat 05:25:17 PM 39.5678 -77.4706 238° Southwest 391 450 40,000  Level Washington Center
Sat 05:26:18 PM 39.5117 -77.5900 239° Southwest 391 450 40,000  Level Washington Center
Sat 05:27:15 PM 39.4533 -77.7094 238° Southwest 391 450 40,000  Level Washington Center
Sat 05:28:16 PM 39.3969 -77.8286 239° Southwest 391 450 40,000  Level Washington Center
Sat 05:29:17 PM 39.3447 -77.9506 241° Southwest 391 450 40,000  Level Washington Center
Sat 05:30:17 PM 39.2964 -78.0722 243° Southwest 391 450 40,000  Level Washington Center
Sat 05:31:18 PM 39.2500 -78.1967 244° Southwest 386 444 40,000  Level Washington Center
Sat 05:32:15 PM 39.1994 -78.3156 241° Southwest 386 444 40,000  Level Washington Center
Sat 05:33:16 PM 39.1528 -78.4369 244° Southwest 386 444 40,000  Level Washington Center
Sat 05:34:17 PM 39.1019 -78.5553 241° Southwest 386 444 40,000  Level Washington Center
Sat 05:35:17 PM 39.0717 -78.6822 253° West 381 438 40,000  Level Washington Center
Sat 05:36:16 PM 39.0414 -78.8094 253° West 375 432 40,000  Level Washington Center
Sat 05:37:15 PM 39.0131 -78.9336 254° West 370 426 40,000  Level Washington Center
Sat 05:38:16 PM 38.9844 -79.0606 254° West 370 426 40,000  Level Washington Center
Sat 05:39:17 PM 38.9536 -79.1847 252° West 370 426 40,000  Level Washington Center
Sat 05:40:15 PM 38.9247 -79.3086 253° West 375 432 40,000  Level Washington Center
Sat 05:41:15 PM 38.8958 -79.4325 253° West 375 432 40,000  Level Washington Center
Sat 05:42:16 PM 38.8647 -79.5561 252° West 375 432 40,000  Level Washington Center
Sat 05:43:16 PM 38.8372 -79.6906 255° West 381 438 40,000  Level Washington Center
Sat 05:44:17 PM 38.8106 -79.8011 253° West 375 432 40,000  Level Washington Center
Sat 05:45:11 PM 38.7800 -79.9111 250° West 370 426 40,000  Level Indianapolis Center
Sat 05:46:13 PM 38.7472 -80.0383 252° West 372 428 40,000  Level Indianapolis Center
Sat 05:47:15 PM 38.7103 -80.1917 253° West 373 429 40,000  Level Indianapolis Center
Sat 05:48:17 PM 38.6789 -80.3194 253° West 373 429 40,000  Level Indianapolis Center
Sat 05:49:18 PM 38.6481 -80.4475 253° West 374 430 40,000  Level Indianapolis Center
Sat 05:50:20 PM 38.6158 -80.5747 252° West 374 430 40,000  Level Indianapolis Center
Sat 05:51:22 PM 38.5842 -80.7022 252° West 375 432 40,000  Level Indianapolis Center
Sat 05:52:24 PM 38.5511 -80.8292 252° West 375 432 40,000  Level Indianapolis Center
Sat 05:53:26 PM 38.5197 -80.9553 252° West 375 432 40,000  Level Indianapolis Center
Sat 05:54:28 PM 38.4881 -81.0800 252° West 372 428 40,000  Level Indianapolis Center
Sat 05:55:30 PM 38.4494 -81.2297 252° West 371 427 40,000  Level Indianapolis Center
Sat 05:56:32 PM 38.4172 -81.3550 252° West 370 426 40,000  Level Indianapolis Center
Sat 05:57:34 PM 38.3850 -81.4808 252° West 370 426 40,000  Level Indianapolis Center
Sat 05:58:36 PM 38.3525 -81.6056 252° West 370 426 40,000  Level Indianapolis Center
Sat 05:59:38 PM 38.3203 -81.7294 252° West 370 426 40,000  Level Indianapolis Center
Sat 06:00:40 PM 38.2889 -81.8508 252° West 365 420 40,000  Level Indianapolis Center
Sat 06:01:42 PM 38.2569 -81.9717 251° West 363 418 40,000  Level Indianapolis Center
Sat 06:02:44 PM 38.2253 -82.0917 251° West 360 414 40,000  Level Indianapolis Center
Sat 06:03:46 PM 38.1867 -82.2344 251° West 357 411 40,000  Level Indianapolis Center
Sat 06:04:48 PM 38.1544 -82.3550 251° West 357 411 40,000  Level Indianapolis Center
Sat 06:05:50 PM 38.1217 -82.4764 251° West 359 413 40,000  Level Indianapolis Center
Sat 06:06:52 PM 38.0889 -82.5975 251° West 359 413 40,000  Level Indianapolis Center
Sat 06:07:54 PM 38.0447 -82.7125 244° Southwest 362 417 40,000  Level Indianapolis Center
Sat 06:08:55 PM 37.9936 -82.8236 240° Southwest 366 421 40,000  Level Indianapolis Center
Sat 06:09:57 PM 37.9342 -82.9508 239° Southwest 364 419 40,000  Level Indianapolis Center
Sat 06:10:59 PM 37.8847 -83.0589 240° Southwest 360 414 40,000 -387 Level Indianapolis Center
Sat 06:12:01 PM 37.8350 -83.1644 239° Southwest 354 407 39,200 -1,065 Descending Indianapolis Center
Sat 06:13:03 PM 37.7856 -83.2692 239° Southwest 353 406 37,800 -1,500 Descending Indianapolis Center
Sat 06:14:05 PM 37.7353 -83.3758 239° Southwest 353 406 36,100 -1,645 Descending Indianapolis Center
Sat 06:15:07 PM 37.6842 -83.4828 239° Southwest 353 406 34,400 -1,839 Descending Indianapolis Center
Sat 06:16:09 PM 37.6253 -83.6075 239° Southwest 353 406 32,300 -1,645 Descending Indianapolis Center
Sat 06:17:11 PM 37.5731 -83.7178 239° Southwest 361 415 31,000 -629 Descending Indianapolis Center
Sat 06:18:13 PM 37.5186 -83.8317 239° Southwest 375 432 31,000  Level Indianapolis Center
Sat 06:19:15 PM 37.4656 -83.9436 239° Southwest 375 432 31,000  Level Indianapolis Center
Sat 06:20:17 PM 37.4119 -84.0553 239° Southwest 374 430 31,000 -537 Level Indianapolis Center
Sat 06:21:18 PM 37.3497 -84.1869 239° Southwest 374 430 29,900 -1,024 Descending Indianapolis Center
Sat 06:22:20 PM 37.2922 -84.3025 238° Southwest 383 441 28,900 -919 Descending Indianapolis Center
Sat 06:23:22 PM 37.2347 -84.4217 239° Southwest 394 453 28,000 -919 Descending Indianapolis Center
Sat 06:24:24 PM 37.1767 -84.5414 239° Southwest 398 458 27,000 -1,016 Descending Indianapolis Center
Sat 06:25:26 PM 37.1161 -84.6636 238° Southwest 409 471 25,900 -1,065 Descending Indianapolis Center
Sat 06:26:28 PM 37.0597 -84.7775 238° Southwest 392 451 24,800 -1,113 Descending Indianapolis Center
Sat 06:27:30 PM 36.9961 -84.9089 239° Southwest 382 440 23,600 -1,073 Descending Indianapolis Center
Sat 06:28:31 PM 36.9417 -85.0189 238° Southwest 376 433 22,600 -976 Descending Indianapolis Center
Sat 06:29:33 PM 36.8869 -85.1297 238° Southwest 376 433 21,600 -968 Descending Indianapolis Center
Sat 06:30:35 PM 36.8347 -85.2347 238° Southwest 365 420 20,600 -774 Descending Indianapolis Center
Sat 06:31:37 PM 36.7819 -85.3397 238° Southwest 361 415 20,000 -293 Descending Indianapolis Center
Sat 06:32:38 PM 36.7306 -85.4436 238° Southwest 357 411 20,000  Level Indianapolis Center
Sat 06:33:40 PM 36.6711 -85.5714 240° Southwest 355 409 20,000  Level Indianapolis Center
Sat 06:34:42 PM 36.6219 -85.6767 240° Southwest 355 409 20,000  Level Indianapolis Center
Sat 06:35:16 PM 36.5911 -85.7400 239° Southwest 355 409 20,000 -568 Level Memphis Center
Sat 06:36:17 PM 36.5478 -85.8314 239° Southwest 355 409 19,100 -1,707 Descending Memphis Center
Sat 06:37:19 PM 36.4914 -85.9508 240° Southwest 344 396 16,500 -2,419 Descending Memphis Center
Sat 06:38:21 PM 36.4433 -86.0511 239° Southwest 338 389 14,100 -2,293 Descending Memphis Center
Sat 06:39:22 PM 36.3967 -86.1486 239° Southwest 332 382 11,800 -1,707 Descending Memphis Center
Sat 06:40:24 PM 36.3503 -86.2453 239° Southwest 327 376 10,600 -1,016 Descending Memphis Center
Sat 06:41:26 PM 36.3061 -86.3347 239° Southwest 310 357 9,700 -1,171 Descending Memphis Center
Sat 06:42:27 PM 36.2672 -86.4175 240° Southwest 284 327 8,200 -1,463 Descending Memphis Center
Sat 06:43:29 PM 36.2269 -86.4978 238° Southwest 276 318 6,700 -1,113 Descending Memphis Center
Sat 06:44:31 PM 36.1633 -86.5378 207° Southwest 263 303 5,900 -823 Descending Memphis Center
Sat 06:45:33 PM 36.0981 -86.5658 199° South 251 289 5,000 -780 Descending Memphis Center
Sat 06:46:34 PM 36.0361 -86.5925 199° South 237 273 4,300 -878 Descending Memphis Center
Sat 06:47:36 PM 35.9953 -86.6386 222° Southwest 238 274 3,200 -1,024 Descending Memphis Center
Sat 06:48:37 PM 36.0392 -86.6756 326° Northwest 198 228 2,200 -976 Descending Memphis Center
Sat 06:49:39 PM 36.0847 -86.6786 357° North 156 180 1,200 -774 Descending Memphis Center
Sat 06:50:41 PM 36.1144 -86.6664 18° North 141 162 600 -581 Descending Memphis Center

Login

Don't have an account? Register now (free) for customized features, flight alerts, and more!